createdAt,value
2017-02-06T00:00:29.920Z,3.5
2017-02-06T00:01:32.887Z,3.5
2017-02-06T00:02:34.827Z,3.5
2017-02-06T00:03:37.270Z,3.5
2017-02-06T00:04:39.714Z,3.5
2017-02-06T00:05:42.661Z,3.5
2017-02-06T00:06:45.099Z,3.5
2017-02-06T00:07:47.544Z,3.3
2017-02-06T00:08:50.509Z,3.4
2017-02-06T00:09:52.446Z,3.3
2017-02-06T00:10:55.393Z,3.4
2017-02-06T00:11:57.845Z,3.5
2017-02-06T00:13:00.288Z,3.5
2017-02-06T00:14:02.727Z,3.5
2017-02-06T00:15:05.676Z,3.4
2017-02-06T00:16:07.951Z,3.4
2017-02-06T00:17:10.731Z,3.4
2017-02-06T00:18:13.010Z,3.4
2017-02-06T00:20:18.364Z,3.3
2017-02-06T00:21:20.803Z,3.3
2017-02-06T00:22:23.243Z,3.3
2017-02-06T00:23:25.686Z,3.3
2017-02-06T00:24:28.641Z,3.3
2017-02-06T00:25:31.129Z,3.3
2017-02-06T00:26:33.574Z,3.3
2017-02-06T00:27:36.014Z,3.3
2017-02-06T00:28:38.796Z,3.2
2017-02-06T00:29:41.235Z,3.2
2017-02-06T00:30:43.675Z,3.3
2017-02-06T00:31:46.116Z,3.3
2017-02-06T00:32:49.055Z,3.2
2017-02-06T00:33:51.500Z,3.2
2017-02-06T00:34:54.466Z,3.2
2017-02-06T00:35:56.405Z,3.2
2017-02-06T00:36:58.845Z,3.2
2017-02-06T00:38:01.792Z,3.2
2017-02-06T00:39:04.233Z,3.2
2017-02-06T00:41:08.910Z,3.3
2017-02-06T00:42:11.855Z,3.3
2017-02-06T00:43:14.130Z,3.3
2017-02-06T00:44:17.076Z,3.3
2017-02-06T00:45:19.513Z,3.3
2017-02-06T00:46:21.951Z,3.3
2017-02-06T00:47:24.393Z,3.3
2017-02-06T00:48:27.172Z,3.2
2017-02-06T00:49:29.451Z,3.2
2017-02-06T00:50:32.392Z,3.2
2017-02-06T00:51:34.832Z,3.1
2017-02-06T00:52:37.273Z,3.1
2017-02-06T00:53:39.715Z,3.2
2017-02-06T00:54:42.160Z,3.2
2017-02-06T00:55:44.962Z,3.1
2017-02-06T00:57:49.807Z,3.1
2017-02-06T00:58:52.773Z,3.2
2017-02-06T00:59:55.049Z,3.2
2017-02-06T01:00:58.014Z,3.3
2017-02-06T01:03:02.862Z,3.1
2017-02-06T01:04:05.303Z,3.1
2017-02-06T01:05:07.575Z,3.1
2017-02-06T01:06:10.350Z,3.1
2017-02-06T01:07:12.790Z,3.1
2017-02-06T01:08:15.741Z,3.1
2017-02-06T01:09:18.185Z,3.1
2017-02-06T01:10:20.628Z,3.1
2017-02-06T01:11:23.064Z,3.1
2017-02-06T01:12:25.505Z,3.1
2017-02-06T01:13:28.449Z,3.1
2017-02-06T01:14:30.890Z,3.1
2017-02-06T01:15:33.330Z,3.1
2017-02-06T01:16:35.770Z,3.1
2017-02-06T01:18:41.115Z,3.1
2017-02-06T01:19:44.088Z,3.1
2017-02-06T01:20:46.025Z,3.2
2017-02-06T01:21:48.468Z,3.2
2017-02-06T01:23:53.829Z,3.2
2017-02-06T01:24:56.306Z,3.2
2017-02-06T01:25:58.762Z,3.2
2017-02-06T01:27:01.206Z,3.2
2017-02-06T01:29:06.560Z,3.1
2017-02-06T01:30:08.668Z,3.1
2017-02-06T01:31:11.619Z,3.1
2017-02-06T01:32:14.057Z,3.1
2017-02-06T01:33:16.496Z,3.1
2017-02-06T01:34:19.440Z,3.1
2017-02-06T01:35:21.877Z,3.1
2017-02-06T01:36:24.313Z,3.1
2017-02-06T01:37:26.752Z,3.1
2017-02-06T01:38:29.196Z,3.1
2017-02-06T01:39:32.138Z,3.1
2017-02-06T01:41:36.820Z,3.1
2017-02-06T01:42:39.767Z,3.1
2017-02-06T01:43:42.210Z,3.1
2017-02-06T01:44:45.182Z,3.1
2017-02-06T01:45:47.456Z,3.1
2017-02-06T01:46:49.900Z,3.1
2017-02-06T01:47:52.367Z,3
2017-02-06T01:48:54.807Z,3
2017-02-06T01:49:57.246Z,3.1
2017-02-06T01:51:00.185Z,3.1
2017-02-06T01:52:02.626Z,3.1
2017-02-06T01:53:05.070Z,3.1
2017-02-06T01:54:07.350Z,3.1
2017-02-06T01:55:10.126Z,3.1
2017-02-06T01:56:12.403Z,3.1
2017-02-06T01:57:15.344Z,3.1
2017-02-06T01:58:17.785Z,3.1
2017-02-06T01:59:20.224Z,3.1
2017-02-06T02:00:22.670Z,3.1
2017-02-06T02:01:26.143Z,3.1
2017-02-06T02:02:28.606Z,3
2017-02-06T02:03:30.547Z,3.1
2017-02-06T02:04:32.983Z,3.1
2017-02-06T02:05:35.427Z,3.1
2017-02-06T02:06:38.371Z,3.1
2017-02-06T02:07:40.817Z,3.1
2017-02-06T02:08:43.282Z,3.1
2017-02-06T02:09:45.723Z,3.1
2017-02-06T02:10:48.550Z,3.1
2017-02-06T02:11:50.998Z,3.1
2017-02-06T02:12:53.439Z,3.1
2017-02-06T02:13:55.876Z,3.1
2017-02-06T02:14:58.315Z,3.1
2017-02-06T02:16:01.262Z,3.1
2017-02-06T02:17:03.534Z,3.1
2017-02-06T02:18:06.311Z,3.1
2017-02-06T02:19:08.414Z,3.1
2017-02-06T02:20:11.020Z,3.1
2017-02-06T02:21:13.965Z,3.1
2017-02-06T02:22:16.407Z,3.1
2017-02-06T02:23:18.851Z,3.1
2017-02-06T02:24:21.293Z,3
2017-02-06T02:26:26.476Z,3
2017-02-06T02:27:28.916Z,3
2017-02-06T02:28:31.862Z,3
2017-02-06T02:29:34.306Z,3
2017-02-06T02:30:36.746Z,3
2017-02-06T02:31:39.186Z,3
2017-02-06T02:32:41.463Z,3
2017-02-06T02:33:44.412Z,3
2017-02-06T02:34:46.858Z,3
2017-02-06T02:35:49.295Z,3
2017-02-06T02:36:52.239Z,3
2017-02-06T02:37:54.683Z,3
2017-02-06T02:38:57.126Z,3
2017-02-06T02:39:59.602Z,3
2017-02-06T02:41:02.045Z,3.1
2017-02-06T02:42:04.825Z,3
2017-02-06T02:43:07.267Z,3
2017-02-06T02:44:09.705Z,3
2017-02-06T02:45:13.179Z,3
2017-02-06T02:46:14.970Z,3.1
2017-02-06T02:47:17.244Z,3
2017-02-06T02:48:20.192Z,3
2017-02-06T02:49:22.655Z,3
2017-02-06T02:50:25.097Z,3
2017-02-06T02:51:27.537Z,3
2017-02-06T02:52:29.975Z,3.1
2017-02-06T02:53:32.918Z,3
2017-02-06T02:54:35.891Z,3
2017-02-06T02:55:37.829Z,3
2017-02-06T02:56:40.273Z,3
2017-02-06T02:57:42.713Z,3.1
2017-02-06T02:58:45.487Z,3.1
2017-02-06T02:59:47.924Z,3
2017-02-06T03:00:50.367Z,2.9
2017-02-06T03:01:53.312Z,2.9
2017-02-06T03:02:55.753Z,2.9
2017-02-06T03:03:58.206Z,2.9
2017-02-06T03:05:00.646Z,2.9
2017-02-06T03:06:03.089Z,2.8
2017-02-06T03:07:06.035Z,2.8
2017-02-06T03:08:08.303Z,2.8
2017-02-06T03:09:10.742Z,2.8
2017-02-06T03:10:14.045Z,2.8
2017-02-06T03:11:15.978Z,2.9
2017-02-06T03:12:18.756Z,2.9
2017-02-06T03:13:21.196Z,2.8
2017-02-06T03:14:23.643Z,2.8
2017-02-06T03:15:26.615Z,2.8
2017-02-06T03:16:28.552Z,2.8
2017-02-06T03:18:33.906Z,2.8
2017-02-06T03:19:36.349Z,2.8
2017-02-06T03:20:38.794Z,2.8
2017-02-06T03:21:41.569Z,2.8
2017-02-06T03:22:44.015Z,2.8
2017-02-06T03:23:46.454Z,2.8
2017-02-06T03:24:48.894Z,2.8
2017-02-06T03:26:54.245Z,2.7
2017-02-06T03:27:56.689Z,2.7
2017-02-06T03:28:59.127Z,2.7
2017-02-06T03:30:02.075Z,2.7
2017-02-06T03:31:04.520Z,2.7
2017-02-06T03:32:06.964Z,2.7
2017-02-06T03:33:09.406Z,2.7
2017-02-06T03:34:11.847Z,2.6
2017-02-06T03:35:14.790Z,2.7
2017-02-06T03:36:17.230Z,2.7
2017-02-06T03:37:19.669Z,2.6
2017-02-06T03:38:22.110Z,2.6
2017-02-06T03:39:24.582Z,2.6
2017-02-06T03:40:26.853Z,2.6
2017-02-06T03:41:29.797Z,2.7
2017-02-06T03:42:32.238Z,2.7
2017-02-06T03:43:34.656Z,2.6
2017-02-06T03:44:37.608Z,2.6
2017-02-06T03:45:40.051Z,2.6
2017-02-06T03:46:42.491Z,2.6
2017-02-06T03:47:44.763Z,2.6
2017-02-06T03:49:50.140Z,2.6
2017-02-06T03:50:52.587Z,2.6
2017-02-06T03:51:55.030Z,2.6
2017-02-06T03:54:00.387Z,2.7
2017-02-06T03:55:02.834Z,2.7
2017-02-06T03:56:05.643Z,2.6
2017-02-06T03:57:08.081Z,2.6
2017-02-06T03:58:10.522Z,2.6
2017-02-06T03:59:12.968Z,2.6
2017-02-06T04:00:15.411Z,2.6
2017-02-06T04:01:17.685Z,2.6
2017-02-06T04:02:20.631Z,2.6
2017-02-06T04:03:23.074Z,2.6
2017-02-06T04:04:25.517Z,2.6
2017-02-06T04:05:28.469Z,2.6
2017-02-06T04:06:30.747Z,2.6
2017-02-06T04:07:33.189Z,2.6
2017-02-06T04:08:36.136Z,2.5
2017-02-06T04:09:38.411Z,2.5
2017-02-06T04:10:40.684Z,2.6
2017-02-06T04:11:43.628Z,2.5
2017-02-06T04:12:46.072Z,2.5
2017-02-06T04:13:48.520Z,2.6
2017-02-06T04:14:50.962Z,2.6
2017-02-06T04:15:53.412Z,2.6
2017-02-06T04:16:56.884Z,2.6
2017-02-06T04:17:58.818Z,2.5
2017-02-06T04:19:01.262Z,2.5
2017-02-06T04:20:03.541Z,2.6
2017-02-06T04:21:06.488Z,2.6
2017-02-06T04:22:08.934Z,2.5
2017-02-06T04:23:11.378Z,2.5
2017-02-06T04:24:13.819Z,2.6
2017-02-06T04:25:16.769Z,2.6
2017-02-06T04:26:19.217Z,2.6
2017-02-06T04:27:21.661Z,2.6
2017-02-06T04:28:24.104Z,2.6
2017-02-06T04:29:26.546Z,2.5
2017-02-06T04:30:28.990Z,2.6
2017-02-06T04:31:31.936Z,2.6
2017-02-06T04:32:34.378Z,2.6
2017-02-06T04:33:36.817Z,2.6
2017-02-06T04:34:39.259Z,2.5
2017-02-06T04:35:41.702Z,2.5
2017-02-06T04:37:47.049Z,2.6
2017-02-06T04:38:49.491Z,2.5
2017-02-06T04:39:51.933Z,2.5
2017-02-06T04:40:54.378Z,2.5
2017-02-06T04:41:57.326Z,2.6
2017-02-06T04:42:59.599Z,2.5
2017-02-06T04:44:02.049Z,2.5
2017-02-06T04:45:04.326Z,2.5
2017-02-06T04:46:07.105Z,2.5
2017-02-06T04:47:09.551Z,2.5
2017-02-06T04:48:12.499Z,2.5
2017-02-06T04:49:14.944Z,2.5
2017-02-06T04:50:17.388Z,2.6
2017-02-06T04:51:20.355Z,2.6
2017-02-06T04:52:22.296Z,2.6
2017-02-06T04:53:25.238Z,2.5
2017-02-06T04:54:27.680Z,2.5
2017-02-06T04:55:30.121Z,2.6
2017-02-06T04:56:32.563Z,2.6
2017-02-06T04:57:35.010Z,2.6
2017-02-06T04:58:37.976Z,2.6
2017-02-06T04:59:40.421Z,2.6
2017-02-06T05:00:42.861Z,2.5
2017-02-06T05:01:45.136Z,2.5
2017-02-06T05:02:47.579Z,2.5
2017-02-06T05:03:50.525Z,2.5
2017-02-06T05:04:53.495Z,2.5
2017-02-06T05:05:55.431Z,2.5
2017-02-06T05:06:57.868Z,2.5
2017-02-06T05:08:00.310Z,2.6
2017-02-06T05:09:03.256Z,2.5
2017-02-06T05:10:05.701Z,2.5
2017-02-06T05:11:07.985Z,2.5
2017-02-06T05:12:10.761Z,2.5
2017-02-06T05:13:13.204Z,2.5
2017-02-06T05:15:18.053Z,2.5
2017-02-06T05:16:21.523Z,2.5
2017-02-06T05:19:28.275Z,2.5
2017-02-06T05:20:30.718Z,2.5
2017-02-06T05:21:33.666Z,2.5
2017-02-06T05:22:36.111Z,2.5
2017-02-06T05:23:38.553Z,2.5
2017-02-06T05:24:40.996Z,2.5
2017-02-06T05:25:43.441Z,2.5
2017-02-06T05:26:46.386Z,2.5
2017-02-06T05:27:48.833Z,2.5
2017-02-06T05:28:51.275Z,2.5
2017-02-06T05:29:53.716Z,2.5
2017-02-06T05:30:56.155Z,2.5
2017-02-06T05:31:58.599Z,2.5
2017-02-06T05:33:01.542Z,2.5
2017-02-06T05:34:03.986Z,2.5
2017-02-06T05:35:06.431Z,2.5
2017-02-06T05:36:08.703Z,2.5
2017-02-06T05:37:11.648Z,2.5
2017-02-06T05:38:13.926Z,2.5
2017-02-06T05:39:16.371Z,2.6
2017-02-06T05:40:19.312Z,2.6
2017-02-06T05:41:21.753Z,2.6
2017-02-06T05:42:24.195Z,2.5
2017-02-06T05:43:26.643Z,2.5
2017-02-06T05:44:29.092Z,2.5
2017-02-06T05:45:32.042Z,2.5
2017-02-06T05:46:34.491Z,2.5
2017-02-06T05:47:36.772Z,2.5
2017-02-06T05:49:42.137Z,2.5
2017-02-06T05:50:45.110Z,2.5
2017-02-06T05:51:47.048Z,2.5
2017-02-06T05:52:49.491Z,2.5
2017-02-06T05:53:51.938Z,2.5
2017-02-06T05:54:54.892Z,2.4
2017-02-06T05:56:59.735Z,2.5
2017-02-06T05:58:02.516Z,2.5
2017-02-06T05:59:04.955Z,2.5
2017-02-06T06:00:07.397Z,2.5
2017-02-06T06:01:09.676Z,2.5
2017-02-06T06:02:12.620Z,2.4
2017-02-06T06:03:15.586Z,2.4
2017-02-06T06:04:17.524Z,2.4
2017-02-06T06:05:19.794Z,2.3
2017-02-06T06:06:22.746Z,2.3
2017-02-06T06:07:25.223Z,2.3
2017-02-06T06:08:27.672Z,2.4
2017-02-06T06:09:30.117Z,2.4
2017-02-06T06:10:32.553Z,2.4
2017-02-06T06:11:35.497Z,2.3
2017-02-06T06:12:37.946Z,2.4
2017-02-06T06:13:40.400Z,2.3
2017-02-06T06:14:42.677Z,2.4
2017-02-06T06:15:45.624Z,2.3
2017-02-06T06:16:48.092Z,2.3
2017-02-06T06:17:50.531Z,2.3
2017-02-06T06:18:52.980Z,2.3
2017-02-06T06:19:55.458Z,2.3
2017-02-06T06:20:57.899Z,2.3
2017-02-06T06:22:01.375Z,2.3
2017-02-06T06:23:03.317Z,2.3
2017-02-06T06:25:07.831Z,2.3
2017-02-06T06:26:10.778Z,2.3
2017-02-06T06:27:13.222Z,2.3
2017-02-06T06:28:15.666Z,2.3
2017-02-06T06:29:18.143Z,2.3
2017-02-06T06:30:21.095Z,2.3
2017-02-06T06:31:23.534Z,2.3
2017-02-06T06:32:25.976Z,2.3
2017-02-06T06:33:28.081Z,2.2
2017-02-06T06:35:33.655Z,2.3
2017-02-06T06:36:36.622Z,2.3
2017-02-06T06:37:38.560Z,2.3
2017-02-06T06:38:41.002Z,2.3
2017-02-06T06:39:43.445Z,2.2
2017-02-06T06:40:46.392Z,2.3
2017-02-06T06:41:48.834Z,2.3
2017-02-06T06:42:51.808Z,2.2
2017-02-06T06:44:56.153Z,2.3
2017-02-06T06:45:58.935Z,2.3
2017-02-06T06:47:01.384Z,2.3
2017-02-06T06:48:03.822Z,2.3
2017-02-06T06:49:06.266Z,2.3
2017-02-06T06:50:09.046Z,2.3
2017-02-06T06:51:11.496Z,2.3
2017-02-06T06:52:13.936Z,2.3
2017-02-06T06:53:16.375Z,2.3
2017-02-06T06:54:19.217Z,2.3
2017-02-06T06:55:21.656Z,2.3
2017-02-06T06:56:24.103Z,2.3
2017-02-06T06:57:26.545Z,2.3
2017-02-06T06:58:29.502Z,2.3
2017-02-06T07:00:34.352Z,2.2
2017-02-06T07:01:36.797Z,2.2
2017-02-06T07:02:39.243Z,2.2
2017-02-06T07:04:44.431Z,2.1
2017-02-06T07:05:46.875Z,2.1
2017-02-06T07:06:49.319Z,2.2
2017-02-06T07:07:52.267Z,2.2
2017-02-06T07:08:54.709Z,2.1
2017-02-06T07:09:57.149Z,2.2
2017-02-06T07:10:59.595Z,2.1
2017-02-06T07:12:02.037Z,2.1
2017-02-06T07:13:04.980Z,2.2
2017-02-06T07:14:07.255Z,2.1
2017-02-06T07:15:09.716Z,2.1
2017-02-06T07:16:11.989Z,2.1
2017-02-06T07:17:14.932Z,2
2017-02-06T07:18:17.372Z,2
2017-02-06T07:19:19.811Z,2.1
2017-02-06T07:20:22.295Z,2
2017-02-06T07:21:24.753Z,2
2017-02-06T07:22:27.700Z,2
2017-02-06T07:23:30.144Z,2
2017-02-06T07:25:34.993Z,2
2017-02-06T07:26:37.438Z,2.1
2017-02-06T07:27:40.389Z,2
2017-02-06T07:28:42.839Z,2.1
2017-02-06T07:29:45.284Z,2.1
2017-02-06T07:30:47.731Z,2.1
2017-02-06T07:31:50.173Z,2.1
2017-02-06T07:32:52.614Z,2.1
2017-02-06T07:33:55.575Z,2.1
2017-02-06T07:34:58.023Z,2.1
2017-02-06T07:36:00.474Z,2
2017-02-06T07:37:02.917Z,2.1
2017-02-06T07:38:05.529Z,2.1
2017-02-06T07:39:07.968Z,2
2017-02-06T07:40:10.743Z,2
2017-02-06T07:41:13.188Z,2
2017-02-06T07:42:15.633Z,2
2017-02-06T07:43:18.079Z,2
2017-02-06T07:44:20.518Z,2
2017-02-06T07:46:25.867Z,2
2017-02-06T07:47:28.313Z,2
2017-02-06T07:48:30.757Z,2
2017-02-06T07:49:33.193Z,2
2017-02-06T07:50:35.630Z,2
2017-02-06T07:51:38.580Z,2
2017-02-06T07:53:43.431Z,2
2017-02-06T07:54:45.881Z,2.1
2017-02-06T07:55:48.323Z,2
2017-02-06T07:56:50.768Z,2.1
2017-02-06T07:57:53.710Z,2.1
2017-02-06T07:58:56.158Z,2.1
2017-02-06T07:59:58.636Z,2
2017-02-06T08:01:01.082Z,2
2017-02-06T08:02:03.858Z,2
2017-02-06T08:03:06.302Z,2
2017-02-06T08:04:08.577Z,2
2017-02-06T08:05:11.025Z,2
2017-02-06T08:06:13.974Z,2
2017-02-06T08:07:16.416Z,2
2017-02-06T08:08:18.861Z,1.9
2017-02-06T08:10:23.709Z,2
2017-02-06T08:11:26.656Z,2
2017-02-06T08:12:28.788Z,2
2017-02-06T08:13:31.233Z,1.9
2017-02-06T08:14:34.180Z,1.9
2017-02-06T08:15:36.622Z,2
2017-02-06T08:16:39.067Z,2
2017-02-06T08:17:41.511Z,2
2017-02-06T08:18:43.958Z,2
2017-02-06T08:19:46.399Z,2
2017-02-06T08:20:49.343Z,2
2017-02-06T08:21:51.788Z,2
2017-02-06T08:22:54.234Z,2
2017-02-06T08:23:56.674Z,2
2017-02-06T08:24:59.123Z,2
2017-02-06T08:26:01.566Z,2
2017-02-06T08:27:04.508Z,2
2017-02-06T08:28:06.953Z,2
2017-02-06T08:29:09.399Z,2
2017-02-06T08:30:11.843Z,2
2017-02-06T08:31:14.323Z,2
2017-02-06T08:32:16.769Z,2
2017-02-06T08:33:19.714Z,1.9
2017-02-06T08:34:22.160Z,1.9
2017-02-06T08:35:24.606Z,1.9
2017-02-06T08:36:27.435Z,1.9
2017-02-06T08:37:29.375Z,1.8
2017-02-06T08:38:32.325Z,1.8
2017-02-06T08:39:34.770Z,1.8
2017-02-06T08:40:37.235Z,1.8
2017-02-06T08:41:39.677Z,1.8
2017-02-06T08:42:42.123Z,1.8
2017-02-06T08:43:44.398Z,1.8
2017-02-06T08:44:47.342Z,1.8
2017-02-06T08:45:49.786Z,1.8
2017-02-06T08:46:52.233Z,1.8
2017-02-06T08:47:54.676Z,1.8
2017-02-06T08:48:57.624Z,1.9
2017-02-06T08:50:00.591Z,1.9
2017-02-06T08:51:02.537Z,1.8
2017-02-06T08:52:04.983Z,1.8
2017-02-06T08:53:07.431Z,1.8
2017-02-06T08:54:09.708Z,1.8
2017-02-06T08:55:12.657Z,1.8
2017-02-06T08:56:15.097Z,1.8
2017-02-06T08:57:17.534Z,1.7
2017-02-06T08:58:19.989Z,1.7
2017-02-06T08:59:22.433Z,1.7
2017-02-06T09:00:25.377Z,1.6
2017-02-06T09:01:27.822Z,1.7
2017-02-06T09:02:30.271Z,1.7
2017-02-06T09:03:32.544Z,1.8
2017-02-06T09:04:35.488Z,1.7
2017-02-06T09:05:37.765Z,1.7
2017-02-06T09:06:40.036Z,1.7
2017-02-06T09:07:42.811Z,1.8
2017-02-06T09:08:45.260Z,1.8
2017-02-06T09:09:47.707Z,1.8
2017-02-06T09:10:50.150Z,1.8
2017-02-06T09:11:53.100Z,1.8
2017-02-06T09:12:55.542Z,1.8
2017-02-06T09:13:57.815Z,1.8
2017-02-06T09:15:00.253Z,1.8
2017-02-06T09:16:03.203Z,1.8
2017-02-06T09:17:05.651Z,1.8
2017-02-06T09:18:08.093Z,1.8
2017-02-06T09:19:10.536Z,1.8
2017-02-06T09:20:13.509Z,1.8
2017-02-06T09:21:15.280Z,1.8
2017-02-06T09:22:18.230Z,1.8
2017-02-06T09:23:20.672Z,1.8
2017-02-06T09:24:23.642Z,1.8
2017-02-06T09:25:25.582Z,1.8
2017-02-06T09:26:28.080Z,1.8
2017-02-06T09:27:31.027Z,1.8
2017-02-06T09:28:33.471Z,1.7
2017-02-06T09:30:38.147Z,1.6
2017-02-06T09:31:41.088Z,1.7
2017-02-06T09:32:43.535Z,1.7
2017-02-06T09:33:45.978Z,1.7
2017-02-06T09:34:48.419Z,1.7
2017-02-06T09:35:50.854Z,1.6
2017-02-06T09:37:56.731Z,1.7
2017-02-06T09:38:58.402Z,1.7
2017-02-06T09:40:00.843Z,1.6
2017-02-06T09:41:03.791Z,1.6
2017-02-06T09:42:06.069Z,1.6
2017-02-06T09:43:08.173Z,1.6
2017-02-06T09:44:10.950Z,1.6
2017-02-06T09:45:13.894Z,1.6
2017-02-06T09:46:16.341Z,1.6
2017-02-06T09:47:18.815Z,1.6
2017-02-06T09:48:21.267Z,1.6
2017-02-06T09:49:24.234Z,1.6
2017-02-06T09:50:26.174Z,1.6
2017-02-06T09:51:28.617Z,1.6
2017-02-06T09:52:31.569Z,1.6
2017-02-06T09:53:34.010Z,1.6
2017-02-06T09:54:36.448Z,1.6
2017-02-06T09:55:39.418Z,1.6
2017-02-06T09:56:41.361Z,1.6
2017-02-06T09:57:43.806Z,1.5
2017-02-06T09:58:47.280Z,1.5
2017-02-06T09:59:49.221Z,1.5
2017-02-06T10:00:51.664Z,1.5
2017-02-06T10:01:54.107Z,1.5
2017-02-06T10:02:57.075Z,1.5
2017-02-06T10:03:58.851Z,1.5
2017-02-06T10:05:01.797Z,1.5
2017-02-06T10:06:04.240Z,1.5
2017-02-06T10:07:06.686Z,1.6
2017-02-06T10:08:08.966Z,1.6
2017-02-06T10:09:11.919Z,1.6
2017-02-06T10:10:14.369Z,1.6
2017-02-06T10:11:16.814Z,1.5
2017-02-06T10:13:21.675Z,1.5
2017-02-06T10:14:24.116Z,1.5
2017-02-06T10:15:27.063Z,1.6
2017-02-06T10:16:29.505Z,1.6
2017-02-06T10:17:31.951Z,1.6
2017-02-06T10:18:34.392Z,1.6
2017-02-06T10:19:36.834Z,1.6
2017-02-06T10:20:39.278Z,1.6
2017-02-06T10:21:41.887Z,1.6
2017-02-06T10:22:44.159Z,1.6
2017-02-06T10:23:47.109Z,1.6
2017-02-06T10:24:49.387Z,1.6
2017-02-06T10:25:52.334Z,1.5
2017-02-06T10:26:54.776Z,1.5
2017-02-06T10:27:57.060Z,1.5
2017-02-06T10:28:59.504Z,1.6
2017-02-06T10:30:01.949Z,1.6
2017-02-06T10:31:04.892Z,1.5
2017-02-06T10:32:07.858Z,1.5
2017-02-06T10:33:09.630Z,1.6
2017-02-06T10:34:12.411Z,1.6
2017-02-06T10:35:14.852Z,1.6
2017-02-06T10:36:17.293Z,1.6
2017-02-06T10:37:19.762Z,1.6
2017-02-06T10:38:22.209Z,1.5
2017-02-06T10:39:24.654Z,1.6
2017-02-06T10:40:27.598Z,1.5
2017-02-06T10:41:30.043Z,1.6
2017-02-06T10:42:32.492Z,1.6
2017-02-06T10:43:34.939Z,1.6
2017-02-06T10:44:37.382Z,1.6
2017-02-06T10:45:39.825Z,1.6
2017-02-06T10:47:45.175Z,1.5
2017-02-06T10:48:47.452Z,1.5
2017-02-06T10:49:49.899Z,1.5
2017-02-06T10:50:52.848Z,1.5
2017-02-06T10:51:55.286Z,1.5
2017-02-06T10:52:57.727Z,1.5
2017-02-06T10:54:00.000Z,1.5
2017-02-06T10:56:05.181Z,1.5
2017-02-06T10:57:07.963Z,1.5
2017-02-06T10:58:10.412Z,1.5
2017-02-06T10:59:12.699Z,1.5
2017-02-06T11:00:15.149Z,1.5
2017-02-06T11:01:18.119Z,1.5
2017-02-06T11:02:20.563Z,1.5
2017-02-06T11:03:23.035Z,1.5
2017-02-06T11:04:25.478Z,1.5
2017-02-06T11:05:27.917Z,1.5
2017-02-06T11:06:30.362Z,1.6
2017-02-06T11:07:32.806Z,1.6
2017-02-06T11:08:35.248Z,1.6
2017-02-06T11:09:38.023Z,1.5
2017-02-06T11:10:40.468Z,1.6
2017-02-06T11:11:43.245Z,1.6
2017-02-06T11:12:45.686Z,1.6
2017-02-06T11:13:48.128Z,1.5
2017-02-06T11:14:50.597Z,1.5
2017-02-06T11:15:53.424Z,1.5
2017-02-06T11:16:55.869Z,1.5
2017-02-06T11:17:58.312Z,1.5
2017-02-06T11:19:00.580Z,1.5
2017-02-06T11:20:02.851Z,1.5
2017-02-06T11:21:05.626Z,1.5
2017-02-06T11:22:08.068Z,1.5
2017-02-06T11:23:11.379Z,1.5
2017-02-06T11:24:13.844Z,1.5
2017-02-06T11:25:15.785Z,1.5
2017-02-06T11:26:18.061Z,1.5
2017-02-06T11:27:21.008Z,1.5
2017-02-06T11:28:23.447Z,1.5
2017-02-06T11:29:25.886Z,1.5
2017-02-06T11:30:28.657Z,1.5
2017-02-06T11:31:31.099Z,1.5
2017-02-06T11:32:33.542Z,1.5
2017-02-06T11:33:35.985Z,1.5
2017-02-06T11:34:38.427Z,1.5
2017-02-06T11:35:41.227Z,1.5
2017-02-06T11:36:43.671Z,1.5
2017-02-06T11:38:48.523Z,1.5
2017-02-06T11:39:50.797Z,1.5
2017-02-06T11:40:53.745Z,1.5
2017-02-06T11:41:56.190Z,1.5
2017-02-06T11:44:01.039Z,1.5
2017-02-06T11:45:04.005Z,1.5
2017-02-06T11:46:06.975Z,1.5
2017-02-06T11:47:08.916Z,1.5
2017-02-06T11:49:13.768Z,1.5
2017-02-06T11:50:16.209Z,1.5
2017-02-06T11:51:18.650Z,1.5
2017-02-06T11:52:21.646Z,1.5
2017-02-06T11:53:23.924Z,1.4
2017-02-06T11:54:26.365Z,1.4
2017-02-06T11:55:28.809Z,1.3
2017-02-06T11:56:31.087Z,1.4
2017-02-06T11:57:34.033Z,1.3
2017-02-06T11:58:36.474Z,1.3
2017-02-06T11:59:38.920Z,1.3
2017-02-06T12:00:41.190Z,1.3
2017-02-06T12:01:43.967Z,1.4
2017-02-06T12:02:46.933Z,1.4
2017-02-06T12:03:48.874Z,1.4
2017-02-06T12:04:51.821Z,1.4
2017-02-06T12:05:54.269Z,1.3
2017-02-06T12:06:56.732Z,1.2
2017-02-06T12:07:59.172Z,1.2
2017-02-06T12:09:01.614Z,1.2
2017-02-06T12:10:04.060Z,1.2
2017-02-06T12:11:06.502Z,1.2
2017-02-06T12:12:09.444Z,1.2
2017-02-06T12:13:11.729Z,1.3
2017-02-06T12:14:14.170Z,1.3
2017-02-06T12:15:16.611Z,1.3
2017-02-06T12:16:48.607Z,1.3
2017-02-06T12:17:21.691Z,1.3
2017-02-06T12:18:24.135Z,1.3
2017-02-06T12:19:27.459Z,1.4
2017-02-06T12:20:29.402Z,1.4
2017-02-06T12:21:32.376Z,1.3
2017-02-06T12:22:34.314Z,1.3
2017-02-06T12:23:37.295Z,1.3
2017-02-06T12:24:39.234Z,1.3
2017-02-06T12:25:41.846Z,1.3
2017-02-06T12:26:44.121Z,1.3
2017-02-06T12:27:47.074Z,1.4
2017-02-06T12:28:49.515Z,1.3
2017-02-06T12:29:51.957Z,1.3
2017-02-06T12:30:54.400Z,1.3
2017-02-06T12:31:56.846Z,1.2
2017-02-06T12:33:00.322Z,1.1
2017-02-06T12:34:02.265Z,1.1
2017-02-06T12:35:04.706Z,1.2
2017-02-06T12:36:06.984Z,1.3
2017-02-06T12:37:09.431Z,1.3
2017-02-06T12:38:12.377Z,1.3
2017-02-06T12:40:17.226Z,1.3
2017-02-06T12:41:19.670Z,1.3
2017-02-06T12:42:22.108Z,1.3
2017-02-06T12:43:24.547Z,1.3
2017-02-06T12:44:27.499Z,1.3
2017-02-06T12:45:29.940Z,1.3
2017-02-06T12:47:34.794Z,1.3
2017-02-06T12:48:37.232Z,1.3
2017-02-06T12:49:40.238Z,1.2
2017-02-06T12:50:42.175Z,1.3
2017-02-06T12:51:45.121Z,1.2
2017-02-06T12:52:47.562Z,1.2
2017-02-06T12:53:50.001Z,1.2
2017-02-06T12:54:52.443Z,1.2
2017-02-06T12:55:54.885Z,1.2
2017-02-06T12:56:57.328Z,1.2
2017-02-06T12:57:59.766Z,1.2
2017-02-06T12:59:02.713Z,1.2
2017-02-06T13:00:05.152Z,1.2
2017-02-06T13:01:07.591Z,1.2
2017-02-06T13:02:10.034Z,1.3
2017-02-06T13:03:12.476Z,1.3
2017-02-06T13:04:14.945Z,1.3
2017-02-06T13:05:17.392Z,1.3
2017-02-06T13:06:20.868Z,1.3
2017-02-06T13:07:22.809Z,1.3
2017-02-06T13:08:25.293Z,1.2
2017-02-06T13:09:27.737Z,1.2
2017-02-06T13:10:30.176Z,1.2
2017-02-06T13:11:32.614Z,1.2
2017-02-06T13:12:35.057Z,1.1
2017-02-06T13:13:37.500Z,1.2
2017-02-06T13:14:40.442Z,1.1
2017-02-06T13:15:42.892Z,1.1
2017-02-06T13:16:45.164Z,1.2
2017-02-06T13:17:47.603Z,1.1
2017-02-06T13:18:50.548Z,1.1
2017-02-06T13:19:52.825Z,1.1
2017-02-06T13:20:55.269Z,1.1
2017-02-06T13:21:57.711Z,1.1
2017-02-06T13:22:59.986Z,1.1
2017-02-06T13:24:02.652Z,1.1
2017-02-06T13:26:07.835Z,1.1
2017-02-06T13:27:10.107Z,1.1
2017-02-06T13:28:12.716Z,1.1
2017-02-06T13:29:15.665Z,1.1
2017-02-06T13:30:18.104Z,1.1
2017-02-06T13:31:20.545Z,1.1
2017-02-06T13:32:22.987Z,1.1
2017-02-06T13:33:25.440Z,1.2
2017-02-06T13:34:27.877Z,1.1
2017-02-06T13:35:30.324Z,1.1
2017-02-06T13:36:33.271Z,1.1
2017-02-06T13:37:35.740Z,1.1
2017-02-06T13:38:38.183Z,1.1
2017-02-06T13:40:43.033Z,1.1
2017-02-06T13:41:45.305Z,1.1
2017-02-06T13:42:48.086Z,1.1
2017-02-06T13:43:50.362Z,1.1
2017-02-06T13:44:53.309Z,1.1
2017-02-06T13:46:58.161Z,1.1
2017-02-06T13:48:00.606Z,1.1
2017-02-06T13:49:03.047Z,1.1
2017-02-06T13:50:05.994Z,1.1
2017-02-06T13:51:08.270Z,1.1
2017-02-06T13:52:11.052Z,1.1
2017-02-06T13:53:13.498Z,1.1
2017-02-06T13:54:15.943Z,1.1
2017-02-06T13:55:18.385Z,1.1
2017-02-06T13:56:20.832Z,1.1
2017-02-06T13:57:23.273Z,1.1
2017-02-06T13:58:25.714Z,1.1
2017-02-06T14:00:31.067Z,1.1
2017-02-06T14:01:33.512Z,1.1
2017-02-06T14:02:35.787Z,1.1
2017-02-06T14:03:39.253Z,1.1
2017-02-06T14:05:43.591Z,1.1
2017-02-06T14:06:45.864Z,1.1
2017-02-06T14:07:48.310Z,1.1
2017-02-06T14:08:51.252Z,1.1
2017-02-06T14:09:53.525Z,1.1
2017-02-06T14:10:55.968Z,1.1
2017-02-06T14:11:58.411Z,1.1
2017-02-06T14:13:01.362Z,1.1
2017-02-06T14:14:03.803Z,1.1
2017-02-06T14:15:06.246Z,1.1
2017-02-06T14:16:08.516Z,1
2017-02-06T14:17:11.125Z,1.1
2017-02-06T14:18:13.564Z,1.1
2017-02-06T14:19:16.006Z,1.1
2017-02-06T14:20:18.955Z,1
2017-02-06T14:21:21.403Z,1
2017-02-06T14:22:23.840Z,1
2017-02-06T14:23:26.281Z,1
2017-02-06T14:24:28.719Z,1
2017-02-06T14:25:31.159Z,1
2017-02-06T14:26:33.604Z,1
2017-02-06T14:27:36.046Z,1
2017-02-06T14:30:43.824Z,1
2017-02-06T14:31:46.263Z,1
2017-02-06T14:32:48.703Z,0.9
2017-02-06T14:33:51.150Z,1
2017-02-06T14:34:54.097Z,1
2017-02-06T14:35:56.541Z,0.9
2017-02-06T14:36:58.977Z,0.9
2017-02-06T14:38:01.264Z,0.9
2017-02-06T14:39:03.711Z,0.9
2017-02-06T14:40:06.154Z,0.9
2017-02-06T14:41:09.100Z,0.9
2017-02-06T14:42:11.541Z,0.8
2017-02-06T14:43:13.908Z,0.8
2017-02-06T14:44:16.356Z,0.8
2017-02-06T14:45:18.799Z,0.9
2017-02-06T14:46:21.406Z,1
2017-02-06T14:47:23.695Z,0.9
2017-02-06T14:48:26.636Z,0.8
2017-02-06T14:49:28.911Z,0.9
2017-02-06T14:50:31.546Z,0.9
2017-02-06T14:51:33.989Z,0.8
2017-02-06T14:52:36.430Z,0.8
2017-02-06T14:53:38.873Z,0.8
2017-02-06T14:54:41.142Z,0.8
2017-02-06T14:55:43.943Z,0.8
2017-02-06T14:56:46.214Z,0.8
2017-02-06T14:57:49.162Z,0.8
2017-02-06T14:59:53.823Z,0.8
2017-02-06T15:00:56.431Z,0.8
2017-02-06T15:01:58.877Z,0.8
2017-02-06T15:03:01.325Z,0.8
2017-02-06T15:05:06.674Z,0.8
2017-02-06T15:06:09.121Z,0.8
2017-02-06T15:07:11.562Z,0.8
2017-02-06T15:08:14.005Z,0.8
2017-02-06T15:09:16.448Z,0.8
2017-02-06T15:10:18.894Z,0.8
2017-02-06T15:11:21.339Z,0.8
2017-02-06T15:12:24.821Z,0.7
2017-02-06T15:13:26.764Z,0.7
2017-02-06T15:14:29.038Z,0.8
2017-02-06T15:16:33.881Z,0.8
2017-02-06T15:17:36.331Z,0.8